5th Annual Formula for Life 5K Run/Walk

Age Group Results

April 14, 2013


Results By Time to Run www.timetorun.net Timetorun.net

5K Run/Walk

Female 14 and under

Place Name City Bib No Age Overall Time Back Chip Time Gun Time Chip Diff Pace
1 Marci Wallace 325 13 19   25:08.83 25:08.83 8:06/M
2 Jada Wick 403 12 55 5:22.82 30:31.65 30:31.65 9:51/M
3 Olivia Obringer 264 13 67 6:53.86 32:02.69 32:02.69 10:20/M
4 Lexy King Fort Wayne IN 220 12 68 6:56.98 32:05.81 32:05.81 10:21/M
5 Kathryn Ausban 108 14 145 18:55.26 44:04.09 44:04.09 14:13/M
6 Hannah Nelson 258 13 147 19:10.62 44:19.45 44:19.45 14:18/M
7 Tenille Boroff 454 13 176 23:33.97 48:42.80 48:42.80 15:43/M
8 Meagan Wallace 324 13 202 26:28.82 51:37.65 51:37.65 16:39/M
9 Allie Kruckeberg 344 11 251 32:40.34 57:49.17 57:49.17 18:39/M
10 Zoe Feichter 181 10 276 37:00.54 1:02:09.37 1:02:09.37 20:03/M
 

Female 15 to 34

Place Name City Bib No Age Overall Time Back Chip Time Gun Time Chip Diff Pace
1 Kate Morris 250 17 4   21:42.56 21:42.56 7:00/M
2 Diana Keller 215 33 6 0:42.89 22:25.45 22:25.45 7:14/M
3 Cadence Faurote 422 16 11 1:55.66 23:38.22 23:38.22 7:37/M
4 Anni Boocher 124 25 12 1:58.82 23:41.38 23:41.38 7:38/M
5 Molly Brennan 354 17 17 2:56.29 24:38.85 24:38.85 7:57/M
6 Madelyn Wallace 326 15 20 3:26.34 25:08.90 25:08.90 8:06/M
7 Caitlin Kelley 218 21 24 4:44.32 26:26.88 26:26.88 8:32/M
8 Sherri All Fort Wayne IN 103 22 27 5:31.61 27:14.17 27:14.17 8:47/M
9 Lauren Greulich Columbia City IN 193 22 28 5:31.65 27:14.21 27:14.21 8:47/M
10 Anna Faber 438 19 30 5:33.34 27:15.90 27:15.90 8:47/M
11 Elizabeth Faber 428 21 31 5:33.44 27:16.00 27:16.00 8:48/M
12 Larissa Denton 157 23 35 6:27.18 28:09.74 28:09.74 9:05/M
13 Lesly Denton 159 21 36 6:27.51 28:10.07 28:10.07 9:05/M
14 Carly Mannes 357 24 38 6:59.08 28:41.64 28:41.64 9:15/M
15 Megan King 356 24 39 6:59.31 28:41.87 28:41.87 9:15/M
16 Emily Cain 378 28 41 7:09.03 28:51.59 28:51.59 9:18/M
17 Abby Snyder 437 24 42 7:09.73 28:52.29 28:52.29 9:19/M
18 Jenna Wynn 395 25 44 7:12.08 28:54.64 28:54.64 9:19/M
19 Jordan Kyle 226 23 48 7:30.96 29:13.52 29:13.52 9:25/M
20 Kate Heimann 201 30 49 7:33.98 29:16.54 29:16.54 9:26/M
21 Abigial Trapp 317 32 54 8:15.14 29:57.70 29:57.70 9:40/M
22 Ashley Mitchell 246 24 56 8:54.80 30:37.36 30:37.36 9:53/M
23 Kristy Rolston 279 24 60 9:17.93 31:00.49 31:00.49 10:00/M
24 Heather Drummond Markle IN 167 33 64 9:58.46 31:41.02 31:41.02 10:13/M
25 Kaitlyn Best 118 19 69 10:24.68 32:07.24 32:07.24 10:22/M
26 Lyndsey Havener 198 19 70 10:24.72 32:07.28 32:07.28 10:22/M
27 Julie Delaney 153 32 73 10:59.37 32:41.93 32:41.93 10:33/M
28 Abby Pape 270 24 82 12:13.89 33:56.45 33:56.45 10:57/M
29 Kelsey Crimmins 149 23 83 12:14.29 33:56.85 33:56.85 10:57/M
30 Tina Hollis 382 21 89 12:45.52 34:28.08 34:28.08 11:07/M
31 Chelsea Girardot 419 20 95 14:11.46 35:54.02 35:54.02 11:35/M
32 Jacquelin Saraceno Fort Wayne IN 284 20 96 14:43.09 36:25.65 36:25.65 11:45/M
33 Lindsay Batlin 114 28 97 15:17.61 37:00.17 37:00.17 11:56/M
34 Jaymi Keller 441 28 98 15:18.61 37:01.17 37:01.17 11:56/M
35 Emily Nagy 433 25 101 15:45.45 37:28.01 37:28.01 12:05/M
36 Lelia Neal 256 20 102 15:48.75 37:31.31 37:31.31 12:06/M
37 Kara Martin 235 33 106 16:15.49 37:58.05 37:58.05 12:15/M
38 Sarah Dennon 155 25 108 16:22.37 38:04.93 38:04.93 12:17/M
39 Leslie Dinse 163 32 109 16:22.98 38:05.54 38:05.54 12:17/M
40 Laura Gerlach 188 29 113 16:48.60 38:31.16 38:31.16 12:25/M
41 Yolanda Moilanen 249 33 115 16:49.18 38:31.74 38:31.74 12:25/M
42 Annette Huelskamp 207 26 118 17:09.86 38:52.42 38:52.42 12:32/M
43 Kristen Gerig 186 20 119 17:22.71 39:05.27 39:05.27 12:36/M
44 Sarah Trentman 318 21 120 17:29.58 39:12.14 39:12.14 12:39/M
45 Nicole Smith Larwill IN 304 27 122 17:45.47 39:28.03 39:28.03 12:44/M
46 Kaitlin Minnich 244 21 123 17:49.50 39:32.06 39:32.06 12:45/M
47 Natosha Reust 398 22 126 18:27.67 40:10.23 40:10.23 12:57/M
48 Kelly Colclasure 145 30 130 19:08.28 40:50.84 40:50.84 13:10/M
49 Holly Rothgeb 426 27 135 19:49.60 41:32.16 41:32.16 13:24/M
50 Pauline Moreau 434 22 136 19:50.28 41:32.84 41:32.84 13:24/M
51 Rachel Sproles 308 23 138 20:07.66 41:50.22 41:50.22 13:30/M
52 Ashley Stemmler 425 27 141 20:19.26 42:01.82 42:01.82 13:33/M
53 Jenna Scott 286 20 142 20:32.70 42:15.26 42:15.26 13:38/M
54 Olivia Ely 176 18 146 22:36.72 44:19.28 44:19.28 14:18/M
55 Julie Velcich 321 20 153 24:04.32 45:46.88 45:46.88 14:46/M
56 Morgan Banks 450 21 154 24:14.56 45:57.12 45:57.12 14:49/M
57 Emily Clifton 144 21 157 24:23.67 46:06.23 46:06.23 14:52/M
58 Erin Whitman 336 27 158 24:39.93 46:22.49 46:22.49 14:57/M
59 Callie McCool 237 27 161 25:16.24 46:58.80 46:58.80 15:09/M
60 Rachel Waters Fort Wayne IN 328 30 162 25:16.33 46:58.89 46:58.89 15:09/M
61 Ashley Cromwell 449 22 164 25:18.22 47:00.78 47:00.78 15:10/M
62 Ashtin Morris 355 19 165 25:18.54 47:01.10 47:01.10 15:10/M
63 Katie Conner 146 34 168 25:51.16 47:33.72 47:33.72 15:20/M
64 Maddy Shirey 293 15 172 26:50.85 48:33.41 48:33.41 15:40/M
65 Mikala Shirey 292 18 173 26:52.35 48:34.91 48:34.91 15:40/M
66 Chloe Hedges 444 23 175 26:59.49 48:42.05 48:42.05 15:43/M
67 Jackie McVey 241 25 190 28:23.94 50:06.50 50:06.50 16:10/M
68 Arissa Doran 166 22 192 28:42.97 50:25.53 50:25.53 16:16/M
69 Amanda Roy 281 34 195 28:56.38 50:38.94 50:38.94 16:20/M
70 Ashley Choinacki 143 27 196 28:56.54 50:39.10 50:39.10 16:20/M
71 Michelle Fraze 184 29 197 28:58.37 50:40.93 50:40.93 16:21/M
72 Elaina Cox 148 22 198 28:58.56 50:41.12 50:41.12 16:21/M
73 Christina Dammeger 379 20 206 30:00.40 51:42.96 51:42.96 16:41/M
74 Natalie Okleshen 375 18 207 30:01.01 51:43.57 51:43.57 16:41/M
75 Carolina Solis 455 30 208 30:01.27 51:43.83 51:43.83 16:41/M
76 Brittany Uamas 456 25 209 30:01.48 51:44.04 51:44.04 16:41/M
77 Brooke Weaver 329 21 212 30:27.29 52:09.85 52:09.85 16:49/M
78 Amanda Bickel 430 26 215 30:52.07 52:34.63 52:34.63 16:57/M
79 Kaylean Leppek 229 21 223 31:41.72 53:24.28 53:24.28 17:14/M
80 Kaitlin Jinnings 213 22 224 31:41.84 53:24.40 53:24.40 17:14/M
81 Jessica Black 121 21 226 32:01.48 53:44.04 53:44.04 17:20/M
82 Elizabeth Lichtenwalter 231 22 227 32:01.69 53:44.25 53:44.25 17:20/M
83 Carrie Alday 102 21 229 32:04.86 53:47.42 53:47.42 17:21/M
84 Lisa Haagen 195 30 231 32:20.77 54:03.33 54:03.33 17:26/M
85 Alma Deweese 160 33 234 32:47.37 54:29.93 54:29.93 17:35/M
86 Gloria May 236 28 239 33:10.03 54:52.59 54:52.59 17:42/M
87 Kelli Kruckeberg 343 18 252 36:08.51 57:51.07 57:51.07 18:40/M
88 Catie Baker 112 29 258 37:03.96 58:46.52 58:46.52 18:57/M
89 Makayla Crowl 150 18 259 37:10.04 58:52.60 58:52.60 18:59/M
90 Stephanie Zollinger 342 19 260 37:10.10 58:52.66 58:52.66 18:59/M
91 Megan Vandeveer 393 25 264 37:24.52 59:07.08 59:07.08 19:04/M
92 Kaley Lepper 383 25 267 37:54.08 59:36.64 59:36.64 19:14/M
93 Jennifer Vachon 320 25 268 37:54.59 59:37.15 59:37.15 19:14/M
94 Krista Rayl 276 28 270 38:16.00 59:58.56 59:58.56 19:21/M
95 Talitha Frecker 185 22 271 38:18.64 1:00:01.20 1:00:01.20 19:22/M
96 Jordan Heim 199 21 272 38:18.96 1:00:01.52 1:00:01.52 19:22/M
97 Rebecca Ryan 562 29 274 40:26.73 1:02:09.29 1:02:09.29 20:03/M
98 Melissa Trar 405 24 284 42:57.09 1:04:39.65 1:04:39.65 20:51/M
 

Female 35 to 84

Place Name City Bib No Age Overall Time Back Chip Time Gun Time Chip Diff Pace
1 Amy Bechtold 115 46 16   24:17.54 24:17.54 7:50/M
2 Rhonda Phillips Markle IN 272 44 57 6:22.48 30:40.02 30:40.02 9:54/M
3 Kristen Morris 251 47 58 6:34.52 30:52.06 30:52.06 9:57/M
4 Lou Weber 334 53 59 6:34.87 30:52.41 30:52.41 9:57/M
5 Melanie Reynolds New Haven 277 46 63 7:06.78 31:24.32 31:24.32 10:08/M
6 Richelle Capper 563 42 66 7:41.74 31:59.28 31:59.28 10:19/M
7 Tammy King Fort Wayne IN 221 41 71 7:51.75 32:09.29 32:09.29 10:22/M
8 Erin Kintanar 222 36 72 8:12.18 32:29.72 32:29.72 10:29/M
9 Jennifer Panza 391 35 78 8:55.85 33:13.39 33:13.39 10:43/M
10 Sharon Braun 129 50 81 9:16.48 33:34.02 33:34.02 10:50/M
11 Michelle Dumford Fort Wayne IN 168 36 84 9:39.61 33:57.15 33:57.15 10:57/M
12 Heather Schuman 285 40 90 10:19.44 34:36.98 34:36.98 11:10/M
13 Rhonda Kirkwood 417 45 91 10:43.00 35:00.54 35:00.54 11:17/M
14 Cindi Furney 442 39 100 13:03.26 37:20.80 37:20.80 12:03/M
15 Misty Ryan 282 42 104 13:24.30 37:41.84 37:41.84 12:09/M
16 Linda Hinrichs 202 50 105 13:36.76 37:54.30 37:54.30 12:14/M
17 Tess Steffen Fort Wayne IN 309 52 107 13:46.39 38:03.93 38:03.93 12:16/M
18 Beck Thobe 424 54 112 14:13.32 38:30.86 38:30.86 12:25/M
19 Anna Specht 353 51 114 14:13.95 38:31.49 38:31.49 12:25/M
20 Tina Parker 271 39 116 14:17.21 38:34.75 38:34.75 12:26/M
21 Derinda Smith Fort Wayne IN 305 52 121 15:09.74 39:27.28 39:27.28 12:44/M
22 Martia Lopshire 429 36 124 15:44.17 40:01.71 40:01.71 12:55/M
23 Julie Hall 399 54 125 15:52.58 40:10.12 40:10.12 12:57/M
24 Jill Wilson Columbia City IN 338 39 127 15:54.80 40:12.34 40:12.34 12:58/M
25 Brenda Reynolds 363 51 132 17:00.82 41:18.36 41:18.36 13:19/M
26 Jamie Mitchell Fort Wayne IN 389 48 139 17:37.22 41:54.76 41:54.76 13:31/M
27 Stacy Barry 113 37 140 17:44.06 42:01.60 42:01.60 13:33/M
28 Deb Dinse 443 57 152 20:32.42 44:49.96 44:49.96 14:27/M
29 Charity Thiel 312 63 155 21:44.60 46:02.14 46:02.14 14:51/M
30 Shelley Porter 273 51 159 22:07.95 46:25.49 46:25.49 14:58/M
31 Dian Oswalt 267 50 160 22:40.15 46:57.69 46:57.69 15:09/M
32 Rose Murphy 254 42 167 23:00.95 47:18.49 47:18.49 15:15/M
33 Jamie Shirey 290 42 171 24:05.78 48:23.32 48:23.32 15:36/M
34 Cammy Smith 294 49 179 24:49.62 49:07.16 49:07.16 15:51/M
35 Linda Huelsman 209 49 180 25:01.46 49:19.00 49:19.00 15:55/M
36 Karen Klepaski 223 60 181 25:01.79 49:19.33 49:19.33 15:55/M
37 Angie Brockhouse 132 49 187 25:39.78 49:57.32 49:57.32 16:07/M
38 Karen Gregg 190 48 188 25:44.46 50:02.00 50:02.00 16:08/M
39 Melissa Rasmussen 275 43 189 25:44.83 50:02.37 50:02.37 16:08/M
40 Marcia Denton 156 62 199 26:57.26 51:14.80 51:14.80 16:32/M
41 Ria Wallace 327 46 201 27:19.96 51:37.50 51:37.50 16:39/M
42 Jennifer Chambers 140 42 211 27:51.78 52:09.32 52:09.32 16:49/M
43 Brenda Morehouse 466 46 213 28:06.63 52:24.17 52:24.17 16:54/M
44 Janet Bitner 120 71 214 28:07.61 52:25.15 52:25.15 16:55/M
45 Linda Thieman 314 67 217 28:27.05 52:44.59 52:44.59 17:01/M
46 Janelle Tumbush 319 70 222 28:47.73 53:05.27 53:05.27 17:07/M
47 Teresa Sabin 283 51 228 29:29.52 53:47.06 53:47.06 17:21/M
48 Joni Landers 406 39 233 30:10.82 54:28.36 54:28.36 17:34/M
49 Linda Myers 255 55 235 30:17.56 54:35.10 54:35.10 17:36/M
50 Sarah Mitchell 247 52 236 30:17.65 54:35.19 54:35.19 17:36/M
51 Paula Avila 109 36 238 30:33.35 54:50.89 54:50.89 17:41/M
52 Amy Ribich 486 35 240 31:11.24 55:28.78 55:28.78 17:54/M
53 Jenny Maldnado 385 37 241 31:11.30 55:28.84 55:28.84 17:54/M
54 Laura Avila 110 35 243 31:32.38 55:49.92 55:49.92 18:00/M
55 Cindy Trahin 316 53 244 31:57.85 56:15.39 56:15.39 18:09/M
56 Carol Greulich Columbia City IN 191 57 245 31:58.32 56:15.86 56:15.86 18:09/M
57 Sr. Anita Holzmer 203 62 247 32:06.20 56:23.74 56:23.74 18:11/M
58 Sr. Jacinta Krecek 224 52 248 32:06.67 56:24.21 56:24.21 18:12/M
59 Dawn Alicea 408 40 250 32:42.95 57:00.49 57:00.49 18:23/M
60 Katrina Boedeker 122 54 253 33:59.09 58:16.63 58:16.63 18:48/M
61 Judy Rodriguez 278 61 255 34:01.06 58:18.60 58:18.60 18:48/M
62 Tammie Thompson 350 38 256 34:01.57 58:19.11 58:19.11 18:49/M
63 Ellen Kruckeberg 345 50 262 34:45.37 59:02.91 59:02.91 19:03/M
64 Kimberlee Rich 366 40 265 35:17.99 59:35.53 59:35.53 19:13/M
65 Carolyn Exner 178 56 269 35:39.04 59:56.58 59:56.58 19:20/M
66 Karen Butler 134 38 278 37:54.25 1:02:11.79 1:02:11.79 20:04/M
67 Rachel Nelson 257 43 279 38:29.54 1:02:47.08 1:02:47.08 20:15/M
68 Elizabeth Ausban 107 45 280 38:30.45 1:02:47.99 1:02:47.99 20:15/M
69 Lisa Weaver 330 46 281 38:37.29 1:02:54.83 1:02:54.83 20:17/M
70 Karen Jeffrey 439 47 282 40:14.36 1:04:31.90 1:04:31.90 20:49/M
71 Deborah Weil 440 47 283 40:14.57 1:04:32.11 1:04:32.11 20:49/M
72 Nancy Johnson 214 72 286 46:08.32 1:10:25.86 1:10:25.86 22:43/M
 

Female 85 and over

Place Name City Bib No Age Overall Time Back Chip Time Gun Time Chip Diff Pace
1 Joanne Mannes 451 99 47   29:04.02 29:04.02 9:23/M
2 Teri Letizia 230 85 163 17:56.12 47:00.14 47:00.14 15:10/M
3 Mary Kay Ehlerding 174 85 194 21:25.05 50:29.07 50:29.07 16:17/M
4 Sister Elise Kriss 225 85 218 23:56.10 53:00.12 53:00.12 17:06/M
5 Fran Foster 183 85 275 33:05.33 1:02:09.35 1:02:09.35 20:03/M
6 Angie Feichter 182 85 277 33:06.66 1:02:10.68 1:02:10.68 20:03/M
 

Male 14 and under

Place Name City Bib No Age Overall Time Back Chip Time Gun Time Chip Diff Pace
1 Zacariah Obringer 263 10 25   26:38.90 26:38.90 8:35/M
2 Uriah Deweese 161 14 37 2:00.24 28:39.14 28:39.14 9:15/M
3 Elijah Obringer 266 8 79 6:38.50 33:17.40 33:17.40 10:44/M
4 Joseph Smith Richmond VA 295 13 94 9:00.73 35:39.63 35:39.63 11:30/M
5 Ben Mattingly 412 12 110 11:28.88 38:07.78 38:07.78 12:18/M
6 Jacob Ely 177 14 144 17:24.77 44:03.67 44:03.67 14:13/M
7 Gerald Vandeveer 565 14 151 18:10.79 44:49.69 44:49.69 14:27/M
8 Noble Rich 369 12 166 20:22.83 47:01.73 47:01.73 15:10/M
9 Jacob Smith South Haven MI 296 12 170 21:37.62 48:16.52 48:16.52 15:34/M
10 Aiden Deweese 162 6 232 27:48.55 54:27.45 54:27.45 17:34/M
11 Jayden Halloway 197 8 242 29:10.33 55:49.23 55:49.23 18:00/M
12 Noah Thompson 351 13 249 29:57.86 56:36.76 56:36.76 18:15/M
13 Aaron Rich 368 12 266 32:57.29 59:36.19 59:36.19 19:14/M
14 Evin Butler 135 7 273 35:08.04 1:01:46.94 1:01:46.94 19:55/M
 

Male 15 to 34

Place Name City Bib No Age Overall Time Back Chip Time Gun Time Chip Diff Pace
1 Ben Houston 205 23 1   17:05.55 17:05.55 5:31/M
2 Ryan Taylor 420 19 2 1:30.07 18:35.62 18:35.62 6:00/M
3 Will Greene 407 23 3 2:03.16 19:08.71 19:08.71 6:10/M
4 Kevin Geier 416 25 5 4:45.31 21:50.86 21:50.86 7:03/M
5 Ben Shineman 289 22 9 5:47.25 22:52.80 22:52.80 7:23/M
6 Chad Eckert 172 28 14 7:05.08 24:10.63 24:10.63 7:48/M
7 Noah Obringer 265 16 15 7:11.73 24:17.28 24:17.28 7:50/M
8 Michael Sorenson 306 20 21 8:13.26 25:18.81 25:18.81 8:10/M
9 Craig Wenning 561 26 22 8:34.00 25:39.55 25:39.55 8:16/M
10 Joshua Bonebrake 400 25 23 9:19.68 26:25.23 26:25.23 8:31/M
11 Jason Hudson Maumee OH 206 23 29 10:08.79 27:14.34 27:14.34 8:47/M
12 Nick Jarrell 212 26 34 11:04.01 28:09.56 28:09.56 9:05/M
13 David Redick 362 25 40 11:45.84 28:51.39 28:51.39 9:18/M
14 Chris Zanoni 341 22 43 11:47.83 28:53.38 28:53.38 9:19/M
15 Andrew Doolittle 165 28 46 11:54.74 29:00.29 29:00.29 9:21/M
16 Kyle Heimann 200 33 50 12:11.40 29:16.95 29:16.95 9:26/M
17 Patrick Mattingly 413 15 62 14:04.36 31:09.91 31:09.91 10:03/M
18 Travis Rolston 280 24 65 14:46.69 31:52.24 31:52.24 10:17/M
19 Amanda Yuszchak 339 22 74 15:44.11 32:49.66 32:49.66 10:35/M
20 Adam Gerlach 187 28 77 15:56.39 33:01.94 33:01.94 10:39/M
21 Tyler Carboni Fort Wayne IN 137 26 80 16:25.28 33:30.83 33:30.83 10:48/M
22 Aaron Castel 138 24 86 17:14.05 34:19.60 34:19.60 11:04/M
23 Tise Aby 101 27 87 17:14.23 34:19.78 34:19.78 11:04/M
24 Andrew Mills Coopersville MI 243 27 88 17:22.17 34:27.72 34:27.72 11:07/M
25 Brandon Smith Fort Wayne IN 303 27 92 17:59.18 35:04.73 35:04.73 11:19/M
26 Jimmy Reynolds 365 15 93 18:28.79 35:34.34 35:34.34 11:28/M
27 Quentin Furney 446 16 99 20:05.65 37:11.20 37:11.20 12:00/M
28 Matt Dyer 436 34 117 21:30.87 38:36.42 38:36.42 12:27/M
29 Benjamin Weigel 335 25 131 23:59.69 41:05.24 41:05.24 13:15/M
30 Kyle Brown 133 21 149 27:23.25 44:28.80 44:28.80 14:21/M
31 Nathan Bienz 119 21 150 27:24.09 44:29.64 44:29.64 14:21/M
32 Alex Morton 415 21 156 29:00.52 46:06.07 46:06.07 14:52/M
33 Kevin Killingsworth 396 22 177 31:55.35 49:00.90 49:00.90 15:48/M
34 Andrew Smith Fort Wayne IN 297 19 178 32:01.29 49:06.84 49:06.84 15:50/M
35 James Mitchell 248 27 185 32:39.54 49:45.09 49:45.09 16:03/M
36 Kraig Malcolm 423 26 193 33:20.24 50:25.79 50:25.79 16:16/M
37 Stefan McVey 240 25 205 34:36.33 51:41.88 51:41.88 16:40/M
38 Joe Chambers 141 21 210 35:02.10 52:07.65 52:07.65 16:49/M
39 Josh Okleshen 371 24 219 35:55.51 53:01.06 53:01.06 17:06/M
40 Jerod Okleshen 372 21 220 35:55.62 53:01.17 53:01.17 17:06/M
41 Cody Phillips 359 20 225 36:38.17 53:43.72 53:43.72 17:20/M
42 Jared Haagen 194 30 230 36:57.48 54:03.03 54:03.03 17:26/M
43 Doug Jackson Angola IN 210 33 257 41:34.55 58:40.10 58:40.10 18:55/M
44 Cory Rhodes 347 20 261 41:52.72 58:58.27 58:58.27 19:01/M
45 Mathew Oarns 404 27 285 47:34.43 1:04:39.98 1:04:39.98 20:51/M
 

Male 35 to 84

Place Name City Bib No Age Overall Time Back Chip Time Gun Time Chip Diff Pace
1 Joe Obringer 262 48 7   22:46.58 22:46.58 7:21/M
2 Andy Arney 421 45 8 0:03.45 22:50.03 22:50.03 7:22/M
3 Jason Keller 384 36 10 0:10.54 22:57.12 22:57.12 7:24/M
4 Brian Kiess Ft. Wayne IN 219 46 13 0:56.73 23:43.31 23:43.31 7:39/M
5 Shannon Branscomb Fort Wayne IN 127 41 18 2:09.72 24:56.30 24:56.30 8:03/M
6 Michael Thena Fort Wayne IN 311 41 26 4:16.96 27:03.54 27:03.54 8:44/M
7 Steve Mitchell Ft. Wayne IN 388 50 32 4:45.71 27:32.29 27:32.29 8:53/M
8 Jeff Morris 252 49 33 5:05.34 27:51.92 27:51.92 8:59/M
9 Doug Kirkwood 418 46 45 6:13.32 28:59.90 28:59.90 9:21/M
10 Robert Mitchell 245 52 51 7:00.68 29:47.26 29:47.26 9:36/M
11 Mitch Harper 447 56 52 7:02.45 29:49.03 29:49.03 9:37/M
12 Jason Summers 427 46 53 7:04.10 29:50.68 29:50.68 9:37/M
13 Philip Rich 367 41 61 8:21.93 31:08.51 31:08.51 10:03/M
14 John Yuszchak 340 52 75 10:11.51 32:58.09 32:58.09 10:38/M
15 Dean Cutshaul 401 69 76 10:14.04 33:00.62 33:00.62 10:39/M
16 Dale Koning 435 55 85 11:26.55 34:13.13 34:13.13 11:02/M
17 Richard Mattingly 414 52 103 14:48.60 37:35.18 37:35.18 12:07/M
18 Robert Noetzel 261 43 111 15:36.00 38:22.58 38:22.58 12:23/M
19 Kevin Okleshen 373 56 128 17:37.38 40:23.96 40:23.96 13:02/M
20 Ken Meyer 242 58 129 18:03.98 40:50.56 40:50.56 13:10/M
21 Scott Reynolds 364 51 133 18:31.93 41:18.51 41:18.51 13:19/M
22 Nathaniel Thompson 349 47 134 18:38.28 41:24.86 41:24.86 13:21/M
23 Pete Braun 128 51 137 18:52.12 41:38.70 41:38.70 13:26/M
24 Gerald Vandeveer 394 37 148 21:33.83 44:20.41 44:20.41 14:18/M
25 Sean McBride 431 43 169 24:53.11 47:39.69 47:39.69 15:22/M
26 Ryan Shirey 291 45 174 25:49.32 48:35.90 48:35.90 15:40/M
27 Dan Feasel 180 50 182 26:34.92 49:21.50 49:21.50 15:55/M
28 Sherry Feasel 179 49 183 26:34.94 49:21.52 49:21.52 15:55/M
29 David Murphy 253 43 184 26:50.97 49:37.55 49:37.55 16:00/M
30 Delbert Brock 130 45 186 27:05.05 49:51.63 49:51.63 16:05/M
31 Dan Aponte 106 52 191 27:26.10 50:12.68 50:12.68 16:12/M
32 Ronald Denton 158 66 200 28:28.79 51:15.37 51:15.37 16:32/M
33 Steven Sell 287 55 203 28:51.21 51:37.79 51:37.79 16:39/M
34 James Thiel 313 62 216 29:57.93 52:44.51 52:44.51 17:01/M
35 Mike Smith Fishers IN 298 49 221 30:16.68 53:03.26 53:03.26 17:07/M
36 John Beck 117 56 237 31:49.73 54:36.31 54:36.31 17:37/M
37 Don Greulich 192 58 246 33:29.92 56:16.50 56:16.50 18:09/M
38 Randy Boedeker 123 54 254 35:30.97 58:17.55 58:17.55 18:48/M
39 Keith Kruckeberg 346 50 263 36:17.95 59:04.53 59:04.53 19:03/M
 

Male 85 and over

Place Name City Bib No Age Overall Time Back Chip Time Gun Time Chip Diff Pace
1 Donovan Ehlerding 175 85 143   43:28.03 43:28.03 14:01/M
2 Don Ehlerding 173 85 204 8:13.21 51:41.24 51:41.24 16:40/M